Skip Navigation Links Skip Navigation Links

Current Weather

Lynn Lake, Man., Lynn Lake, Man.

For information only: do not use for flight planning or navigation.
Latest weather
Observation time Monday, September 25, 2017 5:00 PM CDT
Local time Monday, September 25, 2017 5:30 PM CDT
Flight conditions Visual Meteorological Conditions
Winds
Wind direction South (170°)
Wind speed 12 mph
Wind gusting to 20 mph
Visibility 9 mi.
Sky condition
Ceiling unlimited
Cloud layer few clouds 2,700 ft.
Cloud layer scattered clouds 21,000 ft.
Temperature 50°F
Dewpoint 41°F
Altimeter 30.07 in.Hg
Derived measurements
Relative humidity 71%
Wind chill 46°F
Density altitude -283 ft.
Sea-level pressure 30.13 in.Hg
Remarks
Fully automated report.
METAR CYYL 252200Z AUTO 17010G17KT 9SM FEW027 SCT210 10/05 A3007 RMK SLP203

Settings

Location code

InnerDrive.Weather 4.0.6144.1 Release CLR 4.0.30319.36366
Copyright ©2015 Inner Drive Technology. All rights reserved. Portions Copyright ©1986-2015 David Braverman.

Find weather

Site navigation


Skip Navigation Links

Place info

Page info

PayPal - The safer, easier way to pay online!

Return home.

Copyright ©2017 Inner Drive Technology. Purveyors of fine, hand-crafted computer software. Page printed 2017-09-25T22:30:31 UTC.